Time;durP1;ratioP1;P1;durP2;ratioP2;P2;SDS_P1;SDS_P2;PMS_P1;PMS_P2;Temp;Humidity;BMP_temperature;BMP_pressure;BME280_temperature;BME280_humidity;BME280_pressure;Samples;Min_cycle;Max_cycle;Signal;HPM_P1;HPM_P2
2021/09/23 00:02:15;;;;;;;13.83;12.03;;;;;;;10.23;63.95;95416.38;5010310;28;20444;-74
2021/09/23 00:04:43;;;;;;;14.10;10.33;;;;;;;10.03;64.53;95423.88;5010476;28;21005;-73
2021/09/23 00:07:10;;;;;;;11.37;10.17;;;;;;;9.96;64.60;95410.16;5013965;28;20466;-74
2021/09/23 00:09:37;;;;;;;12.23;9.73;;;;;;;10.30;64.08;95426.66;5012147;28;20758;-76
2021/09/23 00:12:04;;;;;;;12.00;10.33;;;;;;;10.15;64.30;95429.84;5021798;28;20880;-74
2021/09/23 00:14:31;;;;;;;11.17;9.80;;;;;;;9.88;64.99;95434.13;5019246;28;20538;-71
2021/09/23 00:16:59;;;;;;;12.33;9.93;;;;;;;9.72;65.16;95403.50;5017357;28;20451;-73
2021/09/23 00:19:29;;;;;;;12.17;10.50;;;;;;;9.87;65.53;95412.38;5010273;28;20449;-71
2021/09/23 00:21:56;;;;;;;10.63;9.40;;;;;;;9.92;65.28;95430.00;5015839;28;20945;-74
2021/09/23 00:24:23;;;;;;;10.87;8.73;;;;;;;9.70;65.95;95413.41;5016465;28;20455;-71
2021/09/23 00:26:50;;;;;;;11.53;9.47;;;;;;;9.96;65.71;95421.41;5017618;28;20444;-74
2021/09/23 00:29:17;;;;;;;11.63;8.97;;;;;;;9.89;66.24;95422.63;5005351;28;20475;-72
2021/09/23 00:31:44;;;;;;;9.30;8.30;;;;;;;9.86;65.47;95408.19;5010155;28;20476;-74
2021/09/23 00:34:12;;;;;;;9.20;8.03;;;;;;;9.89;65.82;95426.00;5008393;28;20463;-72
2021/09/23 00:36:39;;;;;;;9.00;8.10;;;;;;;9.92;66.06;95414.28;5013820;28;20436;-74
2021/09/23 00:39:06;;;;;;;8.63;7.20;;;;;;;9.95;65.38;95421.66;5022629;28;20439;-74
2021/09/23 00:41:33;;;;;;;7.83;6.70;;;;;;;9.81;65.37;95423.00;5014677;28;20433;-73
2021/09/23 00:44:26;;;;;;;7.23;6.37;;;;;;;9.87;65.49;95412.38;5011664;28;20895;-69
2021/09/23 00:46:53;;;;;;;9.00;7.00;;;;;;;9.75;66.43;95421.34;4993834;28;20453;-73
2021/09/23 00:49:22;;;;;;;7.53;6.50;;;;;;;9.71;66.71;95412.38;5008304;28;20476;-74
2021/09/23 00:51:50;;;;;;;7.13;6.43;;;;;;;9.67;66.69;95406.81;5007816;28;20942;-74
2021/09/23 00:54:18;;;;;;;6.87;6.00;;;;;;;9.75;66.42;95403.00;5008515;28;20465;-75
2021/09/23 00:56:45;;;;;;;7.27;5.67;;;;;;;9.83;66.68;95415.72;5008013;28;20452;-73
2021/09/23 00:59:12;;;;;;;6.70;5.73;;;;;;;10.16;66.11;95413.13;5010250;28;20459;-75
2021/09/23 01:01:47;;;;;;;9.10;6.10;;;;;;;9.93;66.14;95397.53;5010517;28;20440;-74
2021/09/23 01:04:17;;;;;;;5.73;4.77;;;;;;;9.83;67.12;95415.72;5039096;28;20451;-73
2021/09/23 01:06:48;;;;;;;6.17;5.30;;;;;;;9.78;66.93;95405.19;5015706;28;20474;-71
2021/09/23 01:09:15;;;;;;;5.87;5.27;;;;;;;10.15;65.87;95406.28;5010943;28;20571;-74
2021/09/23 01:11:43;;;;;;;5.77;5.17;;;;;;;10.14;65.89;95397.63;5017761;28;20450;-74
2021/09/23 01:14:11;;;;;;;5.70;5.00;;;;;;;10.07;66.30;95406.69;5021793;28;20441;-74
2021/09/23 01:16:47;;;;;;;5.60;5.10;;;;;;;10.15;66.04;95409.69;5016540;28;20531;-76
2021/09/23 01:19:42;;;;;;;5.10;4.60;;;;;;;10.16;66.01;95395.56;5013452;28;20980;-74
2021/09/23 01:22:10;;;;;;;5.70;5.07;;;;;;;10.16;65.64;95392.19;5012169;28;20449;-74
2021/09/23 01:24:55;;;;;;;5.17;4.63;;;;;;;10.29;65.89;95410.19;5012895;28;20435;-76
2021/09/23 01:27:23;;;;;;;5.87;5.03;;;;;;;10.33;65.93;95406.03;5012275;28;20503;-75
2021/09/23 01:29:50;;;;;;;5.00;4.53;;;;;;;10.24;66.28;95397.00;5010385;28;20646;-75
2021/09/23 01:32:19;;;;;;;4.67;4.13;;;;;;;10.37;66.00;95407.13;5026047;28;20437;-74
2021/09/23 01:34:50;;;;;;;5.20;4.70;;;;;;;10.30;66.00;95417.00;5024743;28;20453;-74
2021/09/23 01:37:17;;;;;;;4.57;4.17;;;;;;;10.43;65.38;95416.66;5029052;28;20448;-73
2021/09/23 01:39:49;;;;;;;7.23;4.63;;;;;;;10.17;65.75;95386.69;5020651;28;20449;-73
2021/09/23 01:42:24;;;;;;;5.40;4.10;;;;;;;10.24;65.95;95410.09;5015447;28;20441;-73
2021/09/23 01:44:52;;;;;;;4.33;3.93;;;;;;;10.20;65.89;95390.63;5017348;28;20423;-73
2021/09/23 01:47:20;;;;;;;4.43;4.00;;;;;;;10.45;65.50;95409.34;5020516;28;20440;-74
2021/09/23 01:49:51;;;;;;;4.10;3.70;;;;;;;10.34;65.78;95407.63;5012107;28;20488;-71
2021/09/23 01:52:19;;;;;;;4.10;3.70;;;;;;;10.42;66.02;95401.19;5010803;28;20526;-74
2021/09/23 01:55:05;;;;;;;5.10;4.60;;;;;;;10.23;66.18;95405.88;5015384;28;20447;-74
2021/09/23 01:57:33;;;;;;;11.90;8.40;;;;;;;10.30;66.28;95393.41;5019920;28;21005;-75
2021/09/23 02:00:02;;;;;;;4.63;4.17;;;;;;;10.34;66.06;95394.53;5020365;28;20456;-74
2021/09/23 02:02:39;;;;;;;4.27;3.87;;;;;;;10.44;65.92;95406.97;5005446;28;20434;-75
2021/09/23 02:05:17;;;;;;;4.07;3.63;;;;;;;10.34;66.25;95405.00;5026226;28;20454;-75
2021/09/23 02:07:45;;;;;;;4.60;3.73;;;;;;;10.36;66.23;95404.75;5015640;28;20491;-75
2021/09/23 02:10:15;;;;;;;4.63;4.03;;;;;;;10.60;65.31;95412.16;5018114;28;20488;-75
2021/09/23 02:12:44;;;;;;;4.47;4.07;;;;;;;10.63;65.56;95395.16;5012764;28;21070;-77
2021/09/23 02:15:15;;;;;;;5.07;4.50;;;;;;;10.48;65.73;95403.63;5018228;28;20441;-75
2021/09/23 02:17:44;;;;;;;4.97;4.23;;;;;;;10.20;66.84;95401.91;5014672;28;21044;-74
2021/09/23 02:20:13;;;;;;;5.20;4.40;;;;;;;10.39;66.03;95404.25;5020221;28;20447;-74
2021/09/23 02:22:47;;;;;;;4.60;4.20;;;;;;;10.16;67.09;95407.88;5012827;28;20441;-73
2021/09/23 02:25:15;;;;;;;4.57;4.00;;;;;;;10.35;66.82;95408.41;5012814;28;20487;-76
2021/09/23 02:27:41;;;;;;;4.50;4.10;;;;;;;10.37;66.16;95412.38;5012024;28;20484;-71
2021/09/23 02:30:10;;;;;;;4.80;4.30;;;;;;;10.41;66.40;95407.44;5019518;28;20585;-74
2021/09/23 02:32:38;;;;;;;5.23;4.70;;;;;;;10.47;66.28;95407.28;5022770;28;20945;-75
2021/09/23 02:35:08;;;;;;;5.03;4.53;;;;;;;10.43;65.90;95400.13;5026819;28;20498;-74
2021/09/23 02:37:36;;;;;;;4.87;4.37;;;;;;;10.33;66.39;95405.25;5026003;28;20981;-74
2021/09/23 02:40:04;;;;;;;5.43;4.60;;;;;;;10.24;66.63;95397.00;5016277;28;20946;-72
2021/09/23 02:42:31;;;;;;;4.53;4.13;;;;;;;10.35;66.78;95403.97;5013589;28;20456;-73
2021/09/23 02:44:58;;;;;;;4.70;4.20;;;;;;;10.17;67.65;95406.84;5014243;28;20887;-75
2021/09/23 02:47:26;;;;;;;4.67;4.17;;;;;;;10.06;67.63;95399.84;5018860;28;20530;-74
2021/09/23 02:49:54;;;;;;;4.47;4.07;;;;;;;10.21;68.10;95407.97;5010273;28;20554;-74
2021/09/23 02:52:21;;;;;;;4.53;3.80;;;;;;;10.07;67.31;95393.59;5009972;28;20479;-74
2021/09/23 02:54:49;;;;;;;5.90;4.10;;;;;;;10.45;66.46;95404.09;5011926;28;21009;-75
2021/09/23 02:57:16;;;;;;;5.60;3.73;;;;;;;10.35;66.34;95403.97;5025185;28;21016;-76
2021/09/23 02:59:43;;;;;;;4.00;3.60;;;;;;;10.57;66.69;95402.16;5031869;28;20459;-73
2021/09/23 03:02:11;;;;;;;4.03;3.70;;;;;;;10.56;66.34;95395.34;5019438;28;20450;-74
2021/09/23 03:04:38;;;;;;;4.33;3.73;;;;;;;10.38;66.89;95406.13;5020072;28;20452;-72
2021/09/23 03:07:05;;;;;;;3.83;3.50;;;;;;;10.52;66.19;95402.09;5017428;28;20511;-75
2021/09/23 03:09:32;;;;;;;5.03;3.80;;;;;;;10.38;66.76;95393.00;5010469;28;20484;-74
2021/09/23 03:12:00;;;;;;;3.87;3.57;;;;;;;10.48;66.19;95393.13;5009372;28;20449;-75
2021/09/23 03:14:28;;;;;;;3.70;3.40;;;;;;;10.39;66.48;95404.25;5009694;28;20969;-73
2021/09/23 03:16:54;;;;;;;3.83;3.53;;;;;;;10.56;65.72;95395.34;5009788;28;20993;-71
2021/09/23 03:19:22;;;;;;;4.40;3.73;;;;;;;10.47;66.51;95407.28;5009564;28;20444;-74
2021/09/23 03:21:49;;;;;;;4.20;3.77;;;;;;;10.49;66.46;95410.44;5016198;28;20519;-73
2021/09/23 03:24:16;;;;;;;4.87;4.00;;;;;;;10.50;66.19;95401.56;5028664;28;20450;-74
2021/09/23 03:26:43;;;;;;;4.63;4.03;;;;;;;10.43;66.22;95406.16;5014470;28;20516;-73
2021/09/23 03:29:10;;;;;;;5.03;3.93;;;;;;;10.39;66.90;95404.25;5014204;28;22176;-72
2021/09/23 03:31:38;;;;;;;4.10;3.70;;;;;;;10.40;66.99;95400.63;5013591;28;20452;-75
2021/09/23 03:34:06;;;;;;;4.60;4.20;;;;;;;10.47;66.75;95390.75;5021628;28;20876;-75
2021/09/23 03:36:35;;;;;;;5.20;4.70;;;;;;;10.55;65.80;95404.22;5005203;28;20496;-76
2021/09/23 03:39:04;;;;;;;5.33;4.33;;;;;;;10.50;66.13;95398.94;4990862;28;20516;-72
2021/09/23 03:41:32;;;;;;;8.30;6.87;;;;;;;10.33;67.25;95400.00;4991307;28;20974;-72
2021/09/23 03:43:59;;;;;;;6.37;5.73;;;;;;;10.58;66.32;95388.03;4992958;28;20449;-72
2021/09/23 03:46:27;;;;;;;5.00;4.50;;;;;;;10.29;66.49;95399.69;4998301;28;20464;-67
2021/09/23 03:48:54;;;;;;;5.30;4.80;;;;;;;10.02;66.82;95362.06;5009016;28;20452;-72
2021/09/23 03:51:22;;;;;;;5.47;4.87;;;;;;;10.23;66.86;95407.72;5010332;28;20461;-69
2021/09/23 03:53:49;;;;;;;5.07;4.57;;;;;;;10.06;67.56;95384.13;5020457;28;20488;-73
2021/09/23 03:56:16;;;;;;;6.33;4.80;;;;;;;10.44;66.14;95405.13;5009176;28;20492;-72
2021/09/23 03:58:47;;;;;;;5.87;4.87;;;;;;;10.43;66.38;95384.41;4997405;28;20488;-73
2021/09/23 04:01:15;;;;;;;5.67;5.13;;;;;;;10.05;67.17;95406.13;5009867;28;20455;-71
2021/09/23 04:03:45;;;;;;;5.80;5.20;;;;;;;10.04;67.75;95397.47;5012223;28;20468;-73
2021/09/23 04:06:12;;;;;;;5.63;5.13;;;;;;;10.31;67.39;95407.31;4998312;28;20461;-74
2021/09/23 04:08:40;;;;;;;5.37;4.87;;;;;;;10.22;67.87;95409.53;4993709;28;21022;-72
2021/09/23 04:11:15;;;;;;;6.00;5.43;;;;;;;10.24;67.39;95412.69;4988153;28;20487;-74
2021/09/23 04:13:44;;;;;;;6.20;4.97;;;;;;;10.31;67.27;95413.31;5007187;28;20464;-69
2021/09/23 04:16:11;;;;;;;5.77;5.20;;;;;;;10.32;67.15;95399.22;4994863;28;20861;-74
2021/09/23 04:18:38;;;;;;;5.53;4.90;;;;;;;10.16;67.48;95418.38;5013862;28;20543;-70
2021/09/23 04:21:05;;;;;;;5.47;4.97;;;;;;;10.14;67.79;95423.81;5002545;28;20892;-73
2021/09/23 04:23:32;;;;;;;8.37;5.50;;;;;;;10.30;67.09;95395.22;5000052;28;20477;-73
2021/09/23 04:25:59;;;;;;;7.97;5.60;;;;;;;10.32;66.75;95428.03;4994570;28;20458;-71
2021/09/23 04:28:27;;;;;;;8.50;5.73;;;;;;;10.28;67.04;95434.75;4996964;28;20476;-71
2021/09/23 04:30:55;;;;;;;6.07;5.47;;;;;;;9.94;68.48;95438.41;5001293;28;20524;-71
2021/09/23 04:33:27;;;;;;;5.90;5.30;;;;;;;10.17;67.63;95428.59;5008432;28;20508;-70
2021/09/23 04:35:56;;;;;;;7.70;5.50;;;;;;;10.07;68.03;95430.25;5016051;28;20803;-72
2021/09/23 04:38:27;;;;;;;5.47;4.93;;;;;;;10.30;67.31;95437.94;5001983;28;20552;-73
2021/09/23 04:40:54;;;;;;;6.57;5.87;;;;;;;10.14;67.80;95425.66;5005063;28;20453;-72
2021/09/23 04:43:22;;;;;;;16.77;13.63;;;;;;;10.26;68.07;95456.97;5000046;28;20496;-73
2021/09/23 04:45:49;;;;;;;50.13;38.63;;;;;;;10.28;67.66;95450.47;5015206;28;20447;-71
2021/09/23 04:48:16;;;;;;;58.27;49.10;;;;;;;10.05;67.87;95456.63;5020174;28;20440;-71
2021/09/23 04:50:45;;;;;;;7.17;6.30;;;;;;;10.59;67.68;95468.22;5015384;28;20588;-68
2021/09/23 04:53:12;;;;;;;41.83;35.33;;;;;;;10.61;67.29;95460.13;5013197;28;20524;-71
2021/09/23 04:55:39;;;;;;;36.70;31.70;;;;;;;10.58;66.12;95465.84;5028838;28;20528;-72
2021/09/23 04:58:06;;;;;;;31.27;25.47;;;;;;;10.62;66.22;95478.22;5011462;28;20952;-70
2021/09/23 05:00:33;;;;;;;7.17;6.47;;;;;;;10.54;66.21;95481.25;5009775;28;20466;-69
2021/09/23 05:03:00;;;;;;;9.03;6.50;;;;;;;10.54;66.54;95497.00;5004609;28;20453;-72
2021/09/23 05:05:29;;;;;;;6.73;6.07;;;;;;;10.33;66.91;95500.31;5011572;28;20471;-72
2021/09/23 05:07:57;;;;;;;11.23;5.90;;;;;;;10.30;66.45;95500.81;5011905;28;20448;-72
2021/09/23 05:10:24;;;;;;;9.17;6.60;;;;;;;10.35;66.13;95495.63;5028564;28;20508;-73
2021/09/23 05:12:52;;;;;;;7.83;6.30;;;;;;;10.38;66.49;95508.28;5012099;28;20587;-71
2021/09/23 05:15:19;;;;;;;8.40;7.10;;;;;;;10.50;66.24;95511.59;5030072;28;20444;-71
2021/09/23 05:17:47;;;;;;;37.00;28.97;;;;;;;10.43;66.37;95516.22;5018973;28;20512;-69
2021/09/23 05:20:14;;;;;;;94.77;79.17;;;;;;;10.59;65.61;95512.78;5028049;28;20443;-70
2021/09/23 05:22:42;;;;;;;8.43;7.50;;;;;;;10.66;65.36;95518.66;5013471;28;20449;-70
2021/09/23 05:25:10;;;;;;;8.80;7.73;;;;;;;10.55;65.86;95519.53;5001099;28;20444;-69
2021/09/23 05:27:38;;;;;;;11.27;7.30;;;;;;;10.58;65.35;95529.56;4997203;28;20445;-67
2021/09/23 05:30:08;;;;;;;8.60;7.70;;;;;;;10.58;65.41;95526.13;4999795;28;20483;-66
2021/09/23 05:32:35;;;;;;;8.63;7.70;;;;;;;10.82;65.48;95538.03;5011216;28;20476;-68
2021/09/23 05:35:02;;;;;;;8.53;7.63;;;;;;;10.96;64.45;95532.19;5015522;28;21286;-69
2021/09/23 05:37:29;;;;;;;9.17;7.80;;;;;;;10.85;64.71;95525.22;5009961;28;20451;-68
2021/09/23 05:39:56;;;;;;;10.90;7.83;;;;;;;10.95;64.92;95530.59;5015122;28;20558;-67
2021/09/23 05:42:23;;;;;;;9.10;8.10;;;;;;;10.88;64.79;95535.22;5015004;28;20972;-68
2021/09/23 05:44:50;;;;;;;8.83;7.77;;;;;;;10.91;64.40;95528.72;5003572;28;20437;-69
2021/09/23 05:47:17;;;;;;;10.63;8.37;;;;;;;11.12;63.57;95530.53;5012423;28;20451;-69
2021/09/23 05:49:43;;;;;;;10.40;7.43;;;;;;;10.98;63.89;95540.59;5004275;28;20461;-66
2021/09/23 05:52:10;;;;;;;9.03;7.33;;;;;;;10.78;64.39;95542.16;5012821;28;20437;-68
2021/09/23 05:54:37;;;;;;;10.00;8.47;;;;;;;10.89;63.54;95533.41;5012542;28;20962;-67
2021/09/23 05:57:05;;;;;;;8.83;7.93;;;;;;;10.98;64.63;95543.19;5010234;28;20477;-67
2021/09/23 05:59:32;;;;;;;9.40;7.80;;;;;;;11.33;63.29;95545.50;5005156;28;20500;-69
2021/09/23 06:01:59;;;;;;;11.27;8.83;;;;;;;11.40;63.00;95558.44;4994483;28;20442;-71
2021/09/23 06:04:26;;;;;;;10.97;8.10;;;;;;;11.27;63.50;95553.56;4992866;28;20873;-69
2021/09/23 06:06:54;;;;;;;8.83;7.93;;;;;;;11.29;63.06;95556.72;5018429;28;20440;-69
2021/09/23 06:09:22;;;;;;;9.73;8.27;;;;;;;11.23;62.98;95559.31;5011209;28;20527;-67
2021/09/23 06:11:49;;;;;;;16.37;8.53;;;;;;;11.00;63.54;95564.75;5012037;28;20524;-66
2021/09/23 06:14:16;;;;;;;11.53;8.40;;;;;;;11.09;62.83;95560.66;5012093;28;20524;-69
2021/09/23 06:16:43;;;;;;;10.03;8.90;;;;;;;11.03;63.36;95559.03;5021511;28;20443;-66
2021/09/23 06:19:10;;;;;;;11.63;9.43;;;;;;;11.11;62.95;95560.44;5015634;28;20437;-69
2021/09/23 06:21:39;;;;;;;11.13;8.90;;;;;;;11.27;62.57;95566.69;5011772;28;21045;-69
2021/09/23 06:24:06;;;;;;;11.30;8.93;;;;;;;11.49;62.23;95565.66;5012008;28;20447;-69
2021/09/23 06:26:34;;;;;;;9.70;8.70;;;;;;;11.48;62.00;95565.91;5018700;28;20983;-68
2021/09/23 06:29:01;;;;;;;9.83;8.20;;;;;;;11.29;62.24;95554.13;5018739;28;20890;-68
2021/09/23 06:31:27;;;;;;;11.30;9.10;;;;;;;11.39;62.08;95556.84;5011797;28;20484;-68
2021/09/23 06:33:55;;;;;;;10.40;9.00;;;;;;;11.45;61.81;95566.38;5012715;28;21036;-67
2021/09/23 06:36:21;;;;;;;9.87;8.87;;;;;;;11.49;61.13;95568.28;5011819;28;20539;-67
2021/09/23 06:38:48;;;;;;;9.50;8.50;;;;;;;11.49;60.66;95573.53;5022403;28;20444;-66
2021/09/23 06:41:15;;;;;;;11.33;10.13;;;;;;;11.33;61.16;95563.09;5014551;28;20448;-67
2021/09/23 06:43:42;;;;;;;9.80;8.80;;;;;;;11.33;61.09;95568.34;5011583;28;20440;-66
2021/09/23 06:46:12;;;;;;;10.20;9.10;;;;;;;11.59;60.55;95567.59;5010192;28;20448;-68
2021/09/23 06:48:40;;;;;;;11.40;9.53;;;;;;;11.78;60.49;95571.53;5011412;28;20533;-68
2021/09/23 06:51:07;;;;;;;11.60;9.67;;;;;;;11.47;60.65;95574.81;5011958;28;20522;-67
2021/09/23 06:53:34;;;;;;;12.60;10.13;;;;;;;11.64;60.74;95570.28;5013509;28;20468;-68
2021/09/23 06:56:01;;;;;;;11.20;9.60;;;;;;;12.03;59.75;95580.47;5011699;28;21020;-69
2021/09/23 06:58:28;;;;;;;10.90;8.50;;;;;;;12.13;58.67;95579.78;5011290;28;20472;-69
2021/09/23 07:01:13;;;;;;;10.60;8.63;;;;;;;12.11;57.88;95579.25;5001956;28;20449;-65
2021/09/23 07:04:07;;;;;;;13.03;8.77;;;;;;;12.25;57.90;95567.28;5004651;28;20479;-69
2021/09/23 07:06:54;;;;;;;9.50;8.50;;;;;;;12.69;58.31;95576.59;5026223;28;20480;-69
2021/09/23 07:09:27;;;;;;;11.63;8.70;;;;;;;12.72;56.51;95565.56;4997417;28;20451;-68
2021/09/23 07:11:58;;;;;;;12.93;8.93;;;;;;;12.54;56.87;95580.94;5009641;28;20571;-68
2021/09/23 07:14:26;;;;;;;10.53;8.73;;;;;;;12.50;56.37;95580.63;5009424;28;20441;-69
2021/09/23 07:16:54;;;;;;;10.00;9.00;;;;;;;12.61;56.99;95565.75;5010213;28;20456;-70
2021/09/23 07:19:21;;;;;;;10.67;8.80;;;;;;;12.61;56.19;95577.06;5010458;28;20441;-67
2021/09/23 07:21:54;;;;;;;12.37;9.93;;;;;;;12.88;55.71;95567.25;5009537;28;20555;-68
2021/09/23 07:24:22;;;;;;;11.50;8.97;;;;;;;12.63;55.53;95580.22;5009282;28;20439;-67
2021/09/23 07:26:49;;;;;;;10.40;9.30;;;;;;;12.84;55.05;95568.81;5010601;28;20440;-68
2021/09/23 07:29:17;;;;;;;11.03;8.70;;;;;;;13.00;55.57;95569.72;5009506;28;20436;-67
2021/09/23 07:31:45;;;;;;;13.17;9.83;;;;;;;13.02;55.11;95572.88;5009213;28;20484;-67
2021/09/23 07:34:13;;;;;;;12.57;9.10;;;;;;;13.13;55.11;95554.31;5010771;28;20437;-68
2021/09/23 07:36:40;;;;;;;12.80;9.53;;;;;;;13.01;54.89;95556.28;5015020;28;20451;-69
2021/09/23 07:39:08;;;;;;;24.53;10.67;;;;;;;12.93;54.31;95566.50;5018580;28;20452;-69
2021/09/23 07:41:37;;;;;;;11.23;9.23;;;;;;;12.86;54.27;95565.94;5010547;28;20479;-67
2021/09/23 07:44:06;;;;;;;11.00;9.80;;;;;;;12.74;54.23;95555.59;5010876;28;20449;-70
2021/09/23 07:46:34;;;;;;;14.60;9.57;;;;;;;13.01;54.83;95545.78;5024740;28;20994;-68
2021/09/23 07:49:02;;;;;;;10.93;9.13;;;;;;;12.86;52.60;95558.84;5009662;28;20464;-67
2021/09/23 07:51:29;;;;;;;16.80;9.27;;;;;;;12.69;54.33;95547.69;5024883;28;20484;-67
2021/09/23 07:53:56;;;;;;;8.47;7.67;;;;;;;12.67;52.52;95544.50;5010542;28;20453;-68
2021/09/23 07:56:23;;;;;;;10.30;7.37;;;;;;;12.68;51.86;95547.94;5008503;28;20475;-68
2021/09/23 07:58:50;;;;;;;9.30;8.23;;;;;;;12.98;52.20;95545.50;5010390;28;20503;-69
2021/09/23 08:01:17;;;;;;;9.57;8.23;;;;;;;13.05;52.08;95536.38;5009138;28;20836;-68
2021/09/23 08:03:48;;;;;;;13.23;9.33;;;;;;;12.98;52.39;95541.03;4990233;28;20438;-70
2021/09/23 08:06:16;;;;;;;10.23;7.50;;;;;;;12.72;52.14;95549.78;4996508;28;20440;-68
2021/09/23 08:08:43;;;;;;;8.23;7.13;;;;;;;12.87;51.07;95549.09;5023960;28;20864;-67
2021/09/23 08:11:11;;;;;;;9.07;6.97;;;;;;;13.31;49.89;95549.66;5014707;28;20867;-68
2021/09/23 08:13:40;;;;;;;8.03;7.23;;;;;;;13.40;49.18;95548.09;5028582;28;20447;-67
2021/09/23 08:16:07;;;;;;;19.23;8.17;;;;;;;13.71;50.46;95544.53;5008986;28;20655;-68
2021/09/23 08:18:58;;;;;;;8.83;6.93;;;;;;;14.23;49.02;95543.34;5008799;28;20464;-66
2021/09/23 08:21:33;;;;;;;26.67;7.90;;;;;;;14.13;48.37;95545.19;5010119;28;20825;-67
2021/09/23 08:24:00;;;;;;;10.13;7.20;;;;;;;14.23;48.75;95553.13;5008807;28;20449;-68
2021/09/23 08:26:27;;;;;;;8.20;6.10;;;;;;;13.58;47.74;95560.81;5008244;28;20528;-67
2021/09/23 08:28:54;;;;;;;7.20;6.30;;;;;;;13.61;48.05;95549.78;5014308;28;20444;-69
2021/09/23 08:31:23;;;;;;;7.13;5.90;;;;;;;13.48;48.06;95560.78;5012216;28;20543;-69
2021/09/23 08:33:56;;;;;;;6.13;5.53;;;;;;;13.19;47.39;95547.25;5013061;28;20853;-68
2021/09/23 08:36:23;;;;;;;11.60;5.80;;;;;;;13.40;47.66;95516.53;5013496;28;20499;-68
2021/09/23 08:38:51;;;;;;;6.53;5.83;;;;;;;13.84;47.47;95559.88;5012880;28;20886;-67
2021/09/23 08:41:18;;;;;;;8.07;5.83;;;;;;;13.95;46.89;95550.94;5012350;28;20922;-69
2021/09/23 08:43:47;;;;;;;5.87;5.27;;;;;;;13.44;46.31;95557.09;5013270;28;20507;-67
2021/09/23 08:46:14;;;;;;;8.30;6.13;;;;;;;13.65;47.03;95559.53;5011863;28;20910;-68
2021/09/23 08:48:41;;;;;;;8.37;6.03;;;;;;;13.93;46.71;95553.84;5019228;28;20528;-67
2021/09/23 08:51:08;;;;;;;7.43;6.73;;;;;;;14.25;47.11;95543.88;5017146;28;20559;-68
2021/09/23 08:53:38;;;;;;;6.27;5.67;;;;;;;14.22;44.93;95556.78;5016566;28;20451;-68
2021/09/23 08:56:10;;;;;;;5.83;5.23;;;;;;;14.57;44.42;95554.22;5015065;28;20544;-68
2021/09/23 08:58:38;;;;;;;7.20;5.33;;;;;;;14.93;44.05;95539.94;5012262;28;20660;-67
2021/09/23 09:01:13;;;;;;;12.60;6.03;;;;;;;15.16;44.34;95531.44;5013004;28;20480;-68
2021/09/23 09:04:07;;;;;;;7.47;6.17;;;;;;;15.60;45.34;95525.53;5013058;28;20459;-68
2021/09/23 09:06:59;;;;;;;9.70;5.73;;;;;;;16.01;43.16;95535.63;5010164;28;20816;-68
2021/09/23 09:09:46;;;;;;;6.23;5.57;;;;;;;16.15;42.92;95522.56;5012375;28;20449;-68
2021/09/23 09:12:14;;;;;;;6.37;5.60;;;;;;;16.14;41.61;95521.00;5012888;28;20484;-68
2021/09/23 09:14:46;;;;;;;5.23;4.73;;;;;;;16.33;41.64;95540.44;5025431;28;20449;-67
2021/09/23 09:17:19;;;;;;;8.87;5.93;;;;;;;16.40;41.13;95530.34;5011721;28;20979;-67
2021/09/23 09:19:55;;;;;;;7.83;5.87;;;;;;;16.18;41.37;95540.56;5012103;28;20531;-67
2021/09/23 09:22:25;;;;;;;6.27;5.10;;;;;;;15.49;40.80;95545.13;5011542;28;20540;-68
2021/09/23 09:25:08;;;;;;;5.60;5.10;;;;;;;15.41;41.56;95533.25;5012024;28;20460;-66
2021/09/23 09:27:40;;;;;;;5.70;4.90;;;;;;;15.63;40.70;95530.25;5011202;28;20444;-67
2021/09/23 09:30:23;;;;;;;5.97;5.47;;;;;;;16.16;41.61;95540.03;5013052;28;20536;-68
2021/09/23 09:32:58;;;;;;;5.40;4.90;;;;;;;16.55;40.37;95532.88;5012849;28;20892;-69
2021/09/23 09:35:35;;;;;;;4.87;4.47;;;;;;;15.68;39.35;95538.97;5011825;28;20837;-68
2021/09/23 09:38:07;;;;;;;7.77;5.10;;;;;;;15.92;40.48;95531.19;5010615;28;20448;-68
2021/09/23 09:40:37;;;;;;;6.03;5.43;;;;;;;16.43;41.52;95516.56;5011363;28;20479;-68
2021/09/23 09:43:10;;;;;;;5.77;5.17;;;;;;;16.46;40.07;95518.66;5010777;28;20437;-67
2021/09/23 09:45:40;;;;;;;11.83;4.70;;;;;;;16.39;38.78;95507.59;5011443;28;20443;-67
2021/09/23 09:48:08;;;;;;;6.73;4.40;;;;;;;15.92;39.36;95515.31;5011018;28;20449;-68
2021/09/23 09:50:37;;;;;;;5.00;4.37;;;;;;;15.93;39.12;95520.31;5011380;28;20472;-69
2021/09/23 09:53:08;;;;;;;6.03;4.80;;;;;;;16.33;38.99;95507.91;5011254;28;20444;-70
2021/09/23 09:55:39;;;;;;;5.37;4.87;;;;;;;16.74;38.12;95511.84;5011669;28;20503;-67
2021/09/23 09:58:10;;;;;;;5.40;4.50;;;;;;;17.28;39.06;95503.63;5010571;28;21006;-67
2021/09/23 10:00:40;;;;;;;5.17;4.67;;;;;;;17.11;38.12;95504.88;5011955;28;20467;-68
2021/09/23 10:03:08;;;;;;;4.67;4.27;;;;;;;16.35;37.12;95498.63;5012061;28;20455;-66
2021/09/23 10:05:38;;;;;;;5.00;4.50;;;;;;;16.50;37.63;95509.13;4997659;28;20539;-69
2021/09/23 10:08:08;;;;;;;4.77;4.37;;;;;;;16.74;38.61;95514.47;5011137;28;20518;-68
2021/09/23 10:10:38;;;;;;;5.97;5.03;;;;;;;16.83;38.72;95508.31;5013815;28;20507;-67
2021/09/23 10:13:08;;;;;;;5.37;4.87;;;;;;;17.00;38.85;95513.97;5030318;28;20439;-67
2021/09/23 10:15:37;;;;;;;7.20;5.10;;;;;;;16.53;37.83;95508.56;5016521;28;20445;-66
2021/09/23 10:18:04;;;;;;;5.37;4.47;;;;;;;16.95;37.19;95506.06;5013763;28;20433;-67
2021/09/23 10:20:36;;;;;;;6.37;4.53;;;;;;;17.08;39.20;95521.28;5012666;28;20459;-68
2021/09/23 10:23:05;;;;;;;4.90;4.50;;;;;;;17.17;38.15;95508.22;5012850;28;20452;-67
2021/09/23 10:25:35;;;;;;;6.50;4.93;;;;;;;16.98;37.35;95508.16;5010997;28;20875;-67
2021/09/23 10:28:07;;;;;;;9.57;5.00;;;;;;;17.40;37.84;95502.16;5014437;28;20439;-67
2021/09/23 10:30:42;;;;;;;4.87;4.37;;;;;;;16.88;38.38;95507.47;5015341;28;20958;-68
2021/09/23 10:33:13;;;;;;;7.30;5.07;;;;;;;17.16;37.64;95511.94;5004851;28;20470;-68
2021/09/23 10:35:40;;;;;;;5.40;4.13;;;;;;;17.16;37.31;95502.16;5024315;28;20459;-66
2021/09/23 10:38:30;;;;;;;5.80;4.40;;;;;;;17.24;37.46;95504.16;5003448;28;20487;-68
2021/09/23 10:40:58;;;;;;;4.27;3.93;;;;;;;17.41;37.06;95498.41;5030215;28;20499;-68
2021/09/23 10:43:28;;;;;;;4.73;4.30;;;;;;;17.57;37.45;95512.31;5006699;28;20462;-68
2021/09/23 10:46:00;;;;;;;4.93;4.30;;;;;;;17.45;36.82;95499.44;5029964;28;20576;-68
2021/09/23 10:48:38;;;;;;;5.67;4.20;;;;;;;17.73;37.46;95503.91;5010430;28;20465;-68
2021/09/23 10:51:07;;;;;;;6.50;4.50;;;;;;;17.65;37.30;95503.72;5010987;28;20466;-71
2021/09/23 10:53:36;;;;;;;4.60;3.90;;;;;;;17.70;36.05;95501.03;5013063;28;20437;-67
2021/09/23 10:56:18;;;;;;;4.93;4.43;;;;;;;17.57;37.34;95499.06;5010362;28;20607;-68
2021/09/23 10:58:49;;;;;;;4.27;3.87;;;;;;;17.83;36.14;95502.94;5013491;28;20481;-67
2021/09/23 11:01:39;;;;;;;4.97;4.23;;;;;;;18.08;36.29;95505.28;5007207;28;20453;-67
2021/09/23 11:04:31;;;;;;;5.47;4.00;;;;;;;17.57;35.44;95496.41;5010321;28;20467;-69
2021/09/23 11:07:00;;;;;;;4.47;4.07;;;;;;;17.51;34.76;95492.25;5009596;28;20870;-66
2021/09/23 11:09:28;;;;;;;5.20;4.37;;;;;;;17.77;35.34;95496.16;5011541;28;20448;-67
2021/09/23 11:12:03;;;;;;;5.33;4.17;;;;;;;17.54;35.34;95487.16;5011586;28;20566;-68
2021/09/23 11:14:36;;;;;;;5.90;4.23;;;;;;;17.90;36.89;95500.75;5001732;28;20484;-66
2021/09/23 11:17:07;;;;;;;6.17;4.20;;;;;;;17.78;36.19;95508.34;5012558;28;20441;-67
2021/09/23 11:19:37;;;;;;;4.33;3.97;;;;;;;17.49;36.17;95489.09;5018338;28;20432;-67
2021/09/23 11:22:04;;;;;;;7.53;5.10;;;;;;;17.78;36.28;95489.78;5018435;28;21331;-68
2021/09/23 11:24:32;;;;;;;4.23;3.67;;;;;;;18.32;35.52;95495.34;5009976;28;20445;-67
2021/09/23 11:26:59;;;;;;;4.60;4.10;;;;;;;18.50;36.23;95494.59;5009448;28;20460;-67
2021/09/23 11:29:31;;;;;;;4.70;3.73;;;;;;;18.23;35.31;95501.63;5009709;28;20448;-69
2021/09/23 11:31:59;;;;;;;3.80;3.40;;;;;;;18.03;33.76;95489.41;5009241;28;20477;-70
2021/09/23 11:34:35;;;;;;;4.13;3.60;;;;;;;18.02;35.83;95488.66;5009332;28;20825;-68
2021/09/23 11:37:05;;;;;;;4.77;4.03;;;;;;;18.38;34.98;95477.47;5009285;28;20468;-68
2021/09/23 11:39:51;;;;;;;5.30;3.70;;;;;;;18.56;34.90;95482.00;5025936;28;20496;-68
2021/09/23 11:42:19;;;;;;;5.37;4.30;;;;;;;18.49;34.66;95468.31;5010355;28;20451;-69
2021/09/23 11:44:50;;;;;;;4.63;3.77;;;;;;;18.87;35.39;95462.59;5009351;28;20437;-68